createdAt,value
2017-12-12T00:16:50.761Z,94832.60
2017-12-12T00:19:20.244Z,94825.08
2017-12-12T00:21:48.245Z,94822.58
2017-12-12T00:24:28.069Z,94823.42
2017-12-12T00:26:56.159Z,94834.69
2017-12-12T00:29:24.104Z,94829.25
2017-12-12T00:31:52.101Z,94856.03
2017-12-12T00:34:22.736Z,94860.19
2017-12-12T00:36:50.811Z,94864.38
2017-12-12T00:39:18.816Z,94876.92
2017-12-12T00:41:46.756Z,94885.28
2017-12-12T00:44:14.625Z,94886.94
2017-12-12T00:46:43.008Z,94889.06
2017-12-12T00:49:17.848Z,94899.94
2017-12-12T00:51:45.738Z,94912.45
2017-12-12T00:54:15.297Z,94914.97
2017-12-12T00:56:43.187Z,94914.97
2017-12-12T00:59:17.709Z,94920.83
2017-12-12T01:01:45.783Z,94930.44
2017-12-12T01:04:13.753Z,94942.98
2017-12-12T01:06:41.727Z,94940.89
2017-12-12T01:09:09.704Z,94952.20
2017-12-12T01:11:39.337Z,94950.95
2017-12-12T01:14:07.394Z,94951.34
2017-12-12T01:16:36.901Z,94964.72
2017-12-12T01:19:04.873Z,94977.69
2017-12-12T01:21:32.857Z,94978.11
2017-12-12T01:24:01.461Z,94979.38
2017-12-12T01:26:29.503Z,94984.81
2017-12-12T01:28:57.683Z,94986.91
2017-12-12T01:31:25.722Z,94991.94
2017-12-12T01:33:53.623Z,94993.19
2017-12-12T01:36:21.596Z,95006.58
2017-12-12T01:38:49.570Z,95005.73
2017-12-12T01:41:17.543Z,95012.86
2017-12-12T01:43:45.418Z,95024.57
2017-12-12T01:46:13.258Z,95015.79
2017-12-12T01:48:43.053Z,95007.00
2017-12-12T01:51:11.065Z,95017.05
2017-12-12T01:53:38.937Z,95019.55
2017-12-12T01:56:07.829Z,95018.70
2017-12-12T01:58:36.213Z,95013.67
2017-12-12T02:01:04.185Z,95022.89
2017-12-12T02:03:32.821Z,95029.16
2017-12-12T02:06:00.966Z,95028.74
2017-12-12T02:08:33.579Z,95026.66
2017-12-12T02:11:01.499Z,95021.22
2017-12-12T02:13:29.470Z,95025.40
2017-12-12T02:15:57.407Z,95030.02
2017-12-12T02:18:28.282Z,95028.77
2017-12-12T02:20:58.745Z,95022.48
2017-12-12T02:23:26.799Z,95034.61
2017-12-12T02:25:56.505Z,95030.44
2017-12-12T02:28:24.677Z,95027.09
2017-12-12T02:30:52.772Z,95039.63
2017-12-12T02:33:20.935Z,95030.44
2017-12-12T02:35:48.754Z,95033.35
2017-12-12T02:38:16.625Z,95042.14
2017-12-12T02:40:47.339Z,95040.44
2017-12-12T02:43:16.715Z,95044.64
2017-12-12T02:45:46.524Z,95059.70
2017-12-12T02:48:14.509Z,95044.22
2017-12-12T02:50:42.642Z,95064.70
2017-12-12T02:53:10.546Z,95080.18
2017-12-12T02:55:43.278Z,95069.31
2017-12-12T02:58:11.301Z,95069.73
2017-12-12T03:00:39.277Z,95074.33
2017-12-12T03:03:09.097Z,95080.20
2017-12-12T03:05:37.161Z,95098.19
2017-12-12T03:08:05.018Z,95085.64
2017-12-12T03:10:32.897Z,95094.84
2017-12-12T03:13:01.349Z,95095.27
2017-12-12T03:15:31.095Z,95091.52
2017-12-12T03:17:59.059Z,95097.77
2017-12-12T03:20:26.939Z,95091.08
2017-12-12T03:22:56.383Z,95104.48
2017-12-12T03:25:24.420Z,95121.20
2017-12-12T03:27:52.406Z,95123.29
2017-12-12T03:30:20.364Z,95126.63
2017-12-12T03:32:48.952Z,95138.36
2017-12-12T03:35:16.926Z,95132.91
2017-12-12T03:37:44.890Z,95137.09
2017-12-12T03:40:14.723Z,95150.47
2017-12-12T03:42:42.580Z,95144.21
2017-12-12T03:45:10.462Z,95148.81
2017-12-12T03:47:38.607Z,95150.08
2017-12-12T03:50:11.274Z,95156.77
2017-12-12T03:52:39.484Z,95172.25
2017-12-12T03:55:07.467Z,95169.73
2017-12-12T03:57:37.179Z,95175.61
2017-12-12T04:00:05.062Z,95198.20
2017-12-12T04:02:41.183Z,95203.23
2017-12-12T04:05:11.943Z,95212.05
2017-12-12T04:07:42.430Z,95217.06
2017-12-12T04:10:10.453Z,95208.30
2017-12-12T04:12:41.079Z,95214.15
2017-12-12T04:15:09.462Z,95217.06
2017-12-12T04:17:37.343Z,95217.91
2017-12-12T04:20:05.243Z,95204.13
2017-12-12T04:22:33.272Z,95221.70
2017-12-12T04:25:01.349Z,95224.22
2017-12-12T04:27:31.268Z,95223.79
2017-12-12T04:29:59.339Z,95216.67
2017-12-12T04:32:27.310Z,95213.74
2017-12-12T04:34:56.324Z,95207.87
2017-12-12T04:37:27.861Z,95214.97
2017-12-12T04:39:55.834Z,95225.83
2017-12-12T04:42:29.404Z,95237.13
2017-12-12T04:44:57.406Z,95260.10
2017-12-12T04:47:25.382Z,95267.22
2017-12-12T04:49:53.452Z,95271.37
2017-12-12T04:52:23.278Z,95299.41
2017-12-12T04:54:52.309Z,95311.09
2017-12-12T04:57:20.235Z,95328.27
2017-12-12T04:59:48.208Z,95335.41
2017-12-12T05:02:17.865Z,95318.27
2017-12-12T05:04:45.986Z,95321.25
2017-12-12T05:07:16.468Z,95308.28
2017-12-12T05:09:44.405Z,95312.87
2017-12-12T05:12:12.375Z,95314.16
2017-12-12T05:14:40.258Z,95314.16
2017-12-12T05:17:09.928Z,95310.42
2017-12-12T05:19:38.028Z,95315.88
2017-12-12T05:22:06.012Z,95301.23
2017-12-12T05:24:35.630Z,95320.05
2017-12-12T05:27:03.696Z,95345.19
2017-12-12T05:29:34.295Z,95369.45
2017-12-12T05:32:02.394Z,95396.25
2017-12-12T05:34:30.372Z,95410.09
2017-12-12T05:36:58.647Z,95420.57
2017-12-12T05:39:26.620Z,95412.22
2017-12-12T05:41:54.596Z,95414.73
2017-12-12T05:44:22.706Z,95422.70
2017-12-12T05:46:50.541Z,95422.72
2017-12-12T05:49:18.676Z,95431.54
2017-12-12T05:51:46.792Z,95441.63
2017-12-12T05:54:14.762Z,95457.56
2017-12-12T05:56:42.733Z,95450.47
2017-12-12T05:59:10.572Z,95449.60
2017-12-12T06:01:38.582Z,95455.06
2017-12-12T06:04:06.540Z,95463.02
2017-12-12T06:06:34.424Z,95470.58
2017-12-12T06:09:02.363Z,95480.63
2017-12-12T06:11:30.270Z,95481.05
2017-12-12T06:13:58.236Z,95489.84
2017-12-12T06:16:26.264Z,95498.15
2017-12-12T06:18:54.914Z,95512.77
2017-12-12T06:21:22.872Z,95534.93
2017-12-12T06:23:50.747Z,95555.84
2017-12-12T06:26:19.284Z,95572.55
2017-12-12T06:28:47.210Z,95582.97
2017-12-12T06:31:15.087Z,95600.50
2017-12-12T06:33:44.591Z,95598.80
2017-12-12T06:36:12.655Z,95605.46
2017-12-12T06:38:40.735Z,95608.75
2017-12-12T06:41:08.602Z,95610.83
2017-12-12T06:43:38.442Z,95620.44
2017-12-12T06:46:06.487Z,95635.88
2017-12-12T06:48:34.358Z,95653.83
2017-12-12T06:51:02.243Z,95677.98
2017-12-12T06:53:30.106Z,95663.77
2017-12-12T06:55:58.109Z,95665.44
2017-12-12T06:58:28.199Z,95683.79
2017-12-12T07:00:56.166Z,95696.36
2017-12-12T07:03:24.138Z,95713.05
2017-12-12T07:05:57.882Z,95722.28
2017-12-12T07:08:25.922Z,95743.95
2017-12-12T07:10:53.895Z,95754.38
2017-12-12T07:13:23.392Z,95765.59
2017-12-12T07:15:51.376Z,95778.91
2017-12-12T07:18:19.342Z,95794.26
2017-12-12T07:20:47.312Z,95801.74
2017-12-12T07:23:16.311Z,95797.92
2017-12-12T07:25:45.100Z,95797.55
2017-12-12T07:28:13.176Z,95806.72
2017-12-12T07:30:40.987Z,95825.55
2017-12-12T07:33:13.453Z,95834.72
2017-12-12T07:35:41.360Z,95835.85
2017-12-12T07:38:09.369Z,95847.52
2017-12-12T07:40:37.382Z,95846.22
2017-12-12T07:43:05.422Z,95856.63
2017-12-12T07:45:33.573Z,95866.17
2017-12-12T07:48:01.517Z,95870.23
2017-12-12T07:50:32.038Z,95878.09
2017-12-12T07:53:01.877Z,95885.61
2017-12-12T07:55:30.090Z,95901.75
2017-12-12T07:58:00.244Z,95905.91
2017-12-12T08:00:38.957Z,95907.97
2017-12-12T08:03:08.665Z,95930.11
2017-12-12T08:05:36.719Z,95946.37
2017-12-12T08:08:04.795Z,95942.61
2017-12-12T08:10:37.510Z,95955.95
2017-12-12T08:13:07.023Z,95965.92
2017-12-12T08:15:35.057Z,95973.81
2017-12-12T08:18:03.027Z,95985.13
2017-12-12T08:20:31.102Z,95992.61
2017-12-12T08:23:00.739Z,95997.20
2017-12-12T08:25:28.821Z,96004.30
2017-12-12T08:27:56.856Z,96005.12
2017-12-12T08:30:24.838Z,96020.53
2017-12-12T08:32:55.875Z,96033.86
2017-12-12T08:35:30.365Z,96038.50
2017-12-12T08:37:58.311Z,96050.67
2017-12-12T08:40:27.781Z,96062.98
2017-12-12T08:42:55.755Z,96049.20
2017-12-12T08:45:23.569Z,96059.20
2017-12-12T08:47:51.597Z,96071.34
2017-12-12T08:50:19.532Z,96081.00
2017-12-12T08:52:47.594Z,96098.18
2017-12-12T08:55:16.639Z,96104.02
2017-12-12T08:57:44.604Z,96114.11
2017-12-12T09:00:16.775Z,96113.28
2017-12-12T09:02:46.257Z,96120.80
2017-12-12T09:05:14.973Z,96136.25
2017-12-12T09:07:42.877Z,96148.36
2017-12-12T09:10:11.581Z,96157.16
2017-12-12T09:12:43.215Z,96171.81
2017-12-12T09:15:11.880Z,96174.45
2017-12-12T09:17:40.051Z,96168.67
2017-12-12T09:20:08.035Z,96174.33
2017-12-12T09:22:37.647Z,96185.74
2017-12-12T09:25:07.306Z,96190.70
2017-12-12T09:27:35.531Z,96193.94
2017-12-12T09:30:03.469Z,96185.28
2017-12-12T09:32:31.469Z,96192.91
2017-12-12T09:34:59.441Z,96205.37
2017-12-12T09:37:27.314Z,96209.54
2017-12-12T09:39:55.119Z,96218.32
2017-12-12T09:42:23.172Z,96224.09
2017-12-12T09:44:51.083Z,96225.88
2017-12-12T09:47:19.021Z,96229.31
2017-12-12T09:49:47.050Z,96233.23
2017-12-12T09:52:15.949Z,96237.64
2017-12-12T09:54:44.047Z,96250.34
2017-12-12T09:57:14.132Z,96246.20
2017-12-12T09:59:42.141Z,96238.31
2017-12-12T10:02:10.205Z,96244.22
2017-12-12T10:04:38.913Z,96248.92
2017-12-12T10:07:06.792Z,96252.30
2017-12-12T10:09:36.282Z,96258.51
2017-12-12T10:12:10.927Z,96252.94
2017-12-12T10:14:42.666Z,96260.68
2017-12-12T10:17:10.540Z,96267.98
2017-12-12T10:19:38.409Z,96276.25
2017-12-12T10:22:06.223Z,96291.23
2017-12-12T10:24:34.469Z,96302.45
2017-12-12T10:27:02.440Z,96310.25
2017-12-12T10:29:30.415Z,96311.63
2017-12-12T10:31:58.489Z,96302.06
2017-12-12T10:34:28.995Z,96314.17
2017-12-12T10:36:58.594Z,96324.61
2017-12-12T10:39:28.353Z,96318.80
2017-12-12T10:41:56.320Z,96324.31
2017-12-12T10:44:24.390Z,96323.09
2017-12-12T10:46:53.181Z,96320.98
2017-12-12T10:49:21.222Z,96324.64
2017-12-12T10:51:49.327Z,96320.91
2017-12-12T10:54:17.299Z,96316.88
2017-12-12T10:56:46.101Z,96314.97
2017-12-12T10:59:14.169Z,96306.64
2017-12-12T11:01:43.862Z,96315.56
2017-12-12T11:04:24.439Z,96323.84
2017-12-12T11:06:52.410Z,96307.73
2017-12-12T11:09:21.077Z,96305.09
2017-12-12T11:11:49.006Z,96311.23
2017-12-12T11:14:16.911Z,96307.09
2017-12-12T11:16:49.150Z,96322.09
2017-12-12T11:19:17.710Z,96331.25
2017-12-12T11:21:45.660Z,96335.78
2017-12-12T11:24:16.770Z,96331.66
2017-12-12T11:26:45.012Z,96338.33
2017-12-12T11:29:14.542Z,96341.50
2017-12-12T11:31:44.404Z,96337.21
2017-12-12T11:34:17.760Z,96343.88
2017-12-12T11:36:45.910Z,96343.36
2017-12-12T11:39:13.894Z,96345.41
2017-12-12T11:41:41.966Z,96339.98
2017-12-12T11:44:11.182Z,96349.63
2017-12-12T11:46:39.106Z,96349.63
2017-12-12T11:49:07.858Z,96345.38
2017-12-12T11:51:36.512Z,96359.94
2017-12-12T11:54:08.128Z,96367.37
2017-12-12T11:56:36.250Z,96371.46
2017-12-12T11:59:04.230Z,96374.77
2017-12-12T12:01:32.194Z,96368.95
2017-12-12T12:04:00.080Z,96382.33
2017-12-12T12:06:28.144Z,96393.59
2017-12-12T12:08:56.115Z,96381.47
2017-12-12T12:11:25.396Z,96382.33
2017-12-12T12:13:55.020Z,96391.04
2017-12-12T12:16:23.110Z,96385.92
2017-12-12T12:18:51.218Z,96381.69
2017-12-12T12:21:19.374Z,96376.64
2017-12-12T12:23:47.452Z,96388.30
2017-12-12T12:26:17.038Z,96391.70
2017-12-12T12:28:47.784Z,96396.28
2017-12-12T12:31:15.851Z,96409.26
2017-12-12T12:33:44.534Z,96408.76
2017-12-12T12:38:48.163Z,96409.26
2017-12-12T12:41:25.564Z,96417.18
2017-12-12T12:43:53.527Z,96416.97
2017-12-12T12:46:21.598Z,96420.73
2017-12-12T12:48:50.488Z,96429.88
2017-12-12T12:51:24.858Z,96430.20
2017-12-12T12:53:52.728Z,96431.70
2017-12-12T12:56:20.766Z,96438.14
2017-12-12T12:58:48.827Z,96446.09
2017-12-12T13:01:17.524Z,96441.36
2017-12-12T13:03:45.598Z,96437.02
2017-12-12T13:08:51.244Z,96460.30
2017-12-12T13:11:22.169Z,96469.42
2017-12-12T13:13:51.230Z,96459.39
2017-12-12T13:16:19.172Z,96464.41
2017-12-12T13:18:47.354Z,96465.86
2017-12-12T13:21:16.914Z,96463.79
2017-12-12T13:23:44.938Z,96472.95
2017-12-12T13:26:14.546Z,96477.02
2017-12-12T13:28:42.620Z,96473.27
2017-12-12T13:31:10.688Z,96476.16
2017-12-12T13:33:41.102Z,96488.66
2017-12-12T13:36:09.207Z,96491.12
2017-12-12T13:38:37.172Z,96506.25
2017-12-12T13:41:05.140Z,96518.27
2017-12-12T13:43:33.032Z,96506.91
2017-12-12T13:46:01.081Z,96501.08
2017-12-12T13:48:29.055Z,96513.61
2017-12-12T13:50:57.029Z,96514.39
2017-12-12T13:53:26.618Z,96513.05
2017-12-12T13:55:54.713Z,96506.67
2017-12-12T13:58:22.587Z,96526.67
2017-12-12T14:00:53.262Z,96531.69
2017-12-12T14:03:22.146Z,96532.12
2017-12-12T14:05:50.358Z,96530.83
2017-12-12T14:08:18.364Z,96544.13
2017-12-12T14:10:47.984Z,96550.70
2017-12-12T14:13:18.097Z,96561.08
2017-12-12T14:15:46.167Z,96570.98
2017-12-12T14:18:14.043Z,96577.55
2017-12-12T14:20:42.113Z,96574.52
2017-12-12T14:23:10.094Z,96578.58
2017-12-12T14:25:38.269Z,96581.34
2017-12-12T14:28:21.867Z,96578.70
2017-12-12T14:30:50.053Z,96593.18
2017-12-12T14:33:19.651Z,96591.27
2017-12-12T14:35:47.728Z,96599.55
2017-12-12T14:38:18.222Z,96599.38
2017-12-12T14:40:49.949Z,96596.88
2017-12-12T14:43:18.635Z,96594.72
2017-12-12T14:45:46.607Z,96593.37
2017-12-12T14:48:16.169Z,96585.72
2017-12-12T14:50:44.205Z,96594.05
2017-12-12T14:53:14.013Z,96594.78
2017-12-12T14:55:41.990Z,96598.83
2017-12-12T14:58:12.694Z,96605.48
2017-12-12T15:00:40.890Z,96610.73
2017-12-12T15:03:14.399Z,96609.87
2017-12-12T15:05:44.206Z,96615.74
2017-12-12T15:08:12.178Z,96614.58
2017-12-12T15:10:41.786Z,96616.22
2017-12-12T15:13:09.868Z,96624.12
2017-12-12T15:15:39.477Z,96635.81
2017-12-12T15:18:09.199Z,96643.23
2017-12-12T15:20:37.296Z,96635.72
2017-12-12T15:23:05.137Z,96645.36
2017-12-12T15:25:34.532Z,96657.43
2017-12-12T15:28:02.512Z,96662.53
2017-12-12T15:30:30.594Z,96667.98
2017-12-12T15:32:58.559Z,96670.91
2017-12-12T15:35:26.528Z,96671.25
2017-12-12T15:37:54.504Z,96680.45
2017-12-12T15:42:56.283Z,96681.27
2017-12-12T15:45:25.189Z,96680.25
2017-12-12T15:47:53.145Z,96684.92
2017-12-12T15:50:30.839Z,96686.17
2017-12-12T15:52:59.523Z,96684.01
2017-12-12T15:55:27.351Z,96689.88
2017-12-12T15:57:57.856Z,96691.52
2017-12-12T16:00:26.539Z,96693.25
2017-12-12T16:02:54.414Z,96693.25
2017-12-12T16:05:25.338Z,96701.14
2017-12-12T16:07:54.427Z,96708.17
2017-12-12T16:10:22.609Z,96718.91
2017-12-12T16:12:50.575Z,96725.16
2017-12-12T16:15:24.578Z,96719.23
2017-12-12T16:17:52.965Z,96727.52
2017-12-12T16:20:23.507Z,96729.59
2017-12-12T16:22:52.744Z,96729.11
2017-12-12T16:25:23.667Z,96737.59
2017-12-12T16:27:52.641Z,96735.09
2017-12-12T16:30:20.608Z,96738.78
2017-12-12T16:32:48.579Z,96737.97
2017-12-12T16:35:16.674Z,96737.14
2017-12-12T16:37:46.346Z,96739.61
2017-12-12T16:40:14.452Z,96731.66
2017-12-12T16:42:42.329Z,96727.52
2017-12-12T16:45:13.055Z,96737.53
2017-12-12T16:47:42.273Z,96743.70
2017-12-12T16:50:14.787Z,96742.48
2017-12-12T16:52:43.167Z,96741.62
2017-12-12T16:55:11.146Z,96758.22
2017-12-12T16:57:39.209Z,96766.02
2017-12-12T17:00:08.717Z,96773.09
2017-12-12T17:02:36.791Z,96782.77
2017-12-12T17:05:04.874Z,96790.34
2017-12-12T17:07:34.559Z,96792.06
2017-12-12T17:10:02.455Z,96799.57
2017-12-12T17:12:30.842Z,96798.33
2017-12-12T17:14:58.805Z,96801.75
2017-12-12T17:17:28.698Z,96808.00
2017-12-12T17:19:57.103Z,96807.62
2017-12-12T17:22:34.399Z,96815.13
2017-12-12T17:25:04.020Z,96820.52
2017-12-12T17:27:33.061Z,96819.69
2017-12-12T17:30:01.174Z,96820.08
2017-12-12T17:32:29.274Z,96822.64
2017-12-12T17:35:00.083Z,96826.00
2017-12-12T17:37:29.785Z,96822.15
2017-12-12T17:39:57.836Z,96818.78
2017-12-12T17:42:25.954Z,96817.52
2017-12-12T17:44:55.582Z,96822.53
2017-12-12T17:47:23.563Z,96827.10
2017-12-12T17:49:51.720Z,96835.05
2017-12-12T17:52:20.608Z,96844.67
2017-12-12T17:54:48.630Z,96848.39
2017-12-12T17:57:24.238Z,96856.76
2017-12-12T17:59:56.704Z,96859.70
2017-12-12T18:02:25.833Z,96856.38
2017-12-12T18:06:34.585Z,96901.70
2017-12-12T18:09:02.663Z,96883.31
2017-12-12T18:11:30.712Z,96887.40
2017-12-12T18:14:01.230Z,96888.70
2017-12-12T18:16:30.155Z,96874.45
2017-12-12T18:20:09.858Z,96874.40
2017-12-12T18:22:40.902Z,96873.14
2017-12-12T18:27:41.556Z,96901.44
2017-12-12T18:30:09.539Z,96904.75
2017-12-12T18:32:37.509Z,96908.12
2017-12-12T18:35:05.656Z,96906.72
2017-12-12T18:37:35.662Z,96923.36
